Aeroporto :
LOGIN :

Iscrizione | Disclaimer

   EN    FR    IT 

 










Sommario :    VFR   VFR Marginale   IFR   IFR Intensivo   IFR Molto Intensivo
Visibilità : 
Base nubi : 
>= 8 km
>= 3000ft
5 / 8 km
1000 / 3000 ft
1500m / 5 km
500 / 1000 ft
800 / 1500m
200 / 500 ft
< 800m
< 200 ft
Simboli :   Temporali  Nebbia  Neve Forte  Precipitazioni Forti  Vento > 20 kt
SIGMETs :   Varie  Temporali  Ghiacco  Turbolenza  Onda orograficha  Ceneri Vulcaniche






- Altitudine del aeroporto : 656 ft


UUBC - Grabtsevo

ULTIMO METAR :
  • 021300Z 23004MPS 200V260 9999 BKN037 05/M01 Q1005 R31/150055 NOSIG RMK QFE737/0982

METARs OBSOLETI :
  • 021230Z 22005MPS 180V260 9999 BKN024 05/M01 Q1004 R31/150055 NOSIG RMK QFE736/0982
  • 021200Z 23006MPS 9999 BKN029CB OVC033 05/M01 Q1004 R31/150055 NOSIG RMK QFE737/0982
  • 021130Z 23007MPS 9999 BKN024CB OVC033 04/M01 Q1004 R31/290150 NOSIG RMK QFE737/0982
  • 021100Z 23006MPS 210V270 9999 BKN024 04/M01 Q1004 R13/290150 NOSIG RMK QFE735/0981
  • 021030Z 24006MPS 210V270 9999 BKN022 04/M00 Q1004 R13/290150 NOSIG RMK QFE735/0980

TAF TAF UUBC
Valido dal 02 a 12 ore il 02 a 21 ore UTC


021100Z 0212/0221 23005MPS 9999 BKN012
TEMPO 0212/0217 25007G12MPS 3100 -SHRA SCT006 BKN011CB



MetMap, La meteo Aeronautica in un colpo d'occhio ! - Copyright ORBIFLY Dicembre 2007 - Disclaimer

ORBIFLY MET'MAP TEAM :

Programmazione e sviluppo : Alexandra Zaïnal
Concezione : Baudouin d'Aumeries
Aiuto per la programmazione : Marc-Olivier Méhu
Supporto tecnico e logistico : Manuel Goepfert
Aiuto per la traduzione : Arnaldo La Scala

Contatto : metmap@orbifly.com




FONTI E CREDITI :

   NOAA